Pagrindinis puslapis
METAR-TAF:

METAR-TAF

Oro uostai :

Rietis, Italija

platuma: 42-25N, ilguma: 012-51E, Aukštis: 389 m

Dabartinis oras

Ataskaita buvo paskelbta 13 valandos ir 32 minutes, ne 17:50 UTC
Vėjas 4 kt iš Vakarų
Temperatūra 23°C
Drėgmė 57%
Slėgis 1008 hPa
Matomumas 10 km arba daugiau
nėra debesų žemiau 1500 m ir nėra kamuolinių lietaus debesų

METAR: LIQN 061750Z 27004KT CAVOK 23/14 Q1008

Laikas: 09:22 (07:22 UTC)


TAF: trūkstamas

Orai ataskaitas ir orų prognozės (METAR, TAF).

turimą stotys yra geltonos ir raudonos taškus žemėlapyje.

Perkelti pele per norėdami pamatyti stoties vardą.

Tada spustelėkite, norėdami matyti oro stebėjimo ir prognozės.

Norėdami pakeisti žemėlapį: spustelėkite ant žalios mygtukų su juodo kryžiaus žemyn,; žalią mygtuką su brūkšneliu, jei norite nutolinti; arba žalių rodyklių gretimoms žemėlapius.


METAR-TAF: